createdAt,value
2022-11-29T00:01:35.992Z,4.80
2022-11-29T00:04:04.682Z,4.90
2022-11-29T00:06:35.291Z,5.10
2022-11-29T00:09:07.243Z,5.00
2022-11-29T00:11:54.719Z,5.10
2022-11-29T00:14:24.135Z,5.10
2022-11-29T00:16:53.246Z,5.00
2022-11-29T00:19:21.446Z,4.80
2022-11-29T00:21:50.889Z,4.70
2022-11-29T00:24:19.630Z,4.90
2022-11-29T00:26:48.037Z,4.90
2022-11-29T00:29:16.205Z,4.90
2022-11-29T00:31:44.835Z,5.00
2022-11-29T00:34:13.595Z,4.90
2022-11-29T00:36:42.000Z,4.90
2022-11-29T00:39:13.028Z,4.90
2022-11-29T00:41:41.694Z,4.90
2022-11-29T00:44:13.988Z,4.90
2022-11-29T00:46:43.414Z,5.00
2022-11-29T00:49:11.505Z,5.10
2022-11-29T00:51:39.616Z,5.00
2022-11-29T00:54:07.679Z,5.10
2022-11-29T00:56:37.342Z,5.10
2022-11-29T00:59:05.436Z,5.10
2022-11-29T01:01:33.500Z,5.10
2022-11-29T01:04:02.144Z,5.10
2022-11-29T01:06:30.206Z,5.10
2022-11-29T01:08:58.508Z,4.90
2022-11-29T01:11:28.987Z,4.80
2022-11-29T01:14:01.603Z,4.90
2022-11-29T01:16:31.251Z,4.90
2022-11-29T01:19:00.420Z,4.90
2022-11-29T01:21:28.651Z,4.90
2022-11-29T01:23:57.256Z,4.90
2022-11-29T01:26:27.018Z,4.80
2022-11-29T01:28:57.057Z,4.70
2022-11-29T01:31:28.250Z,4.70
2022-11-29T01:33:57.875Z,4.60
2022-11-29T01:36:26.292Z,4.60
2022-11-29T01:38:54.720Z,4.60
2022-11-29T01:41:26.052Z,4.60
2022-11-29T01:44:00.479Z,4.60
2022-11-29T01:46:31.878Z,4.80
2022-11-29T01:49:04.541Z,4.90
2022-11-29T01:51:35.263Z,4.80
2022-11-29T01:54:03.676Z,4.70
2022-11-29T01:56:34.378Z,4.60
2022-11-29T01:59:04.031Z,4.70
2022-11-29T02:01:34.729Z,4.60
2022-11-29T02:04:02.829Z,4.80
2022-11-29T02:06:31.724Z,4.70
2022-11-29T02:08:59.798Z,4.50
2022-11-29T02:11:51.140Z,4.60
2022-11-29T02:14:37.067Z,4.60
2022-11-29T02:17:18.009Z,4.60
2022-11-29T02:20:08.412Z,4.70
2022-11-29T02:22:42.489Z,4.70
2022-11-29T02:25:35.168Z,4.70
2022-11-29T02:28:46.614Z,4.80
2022-11-29T02:31:50.712Z,4.70
2022-11-29T02:34:41.479Z,4.70
2022-11-29T02:37:34.201Z,4.70
2022-11-29T02:40:34.892Z,4.80
2022-11-29T02:43:27.652Z,4.70
2022-11-29T02:46:12.876Z,4.70
2022-11-29T02:48:52.883Z,4.50
2022-11-29T02:51:28.841Z,4.40
2022-11-29T02:54:03.114Z,4.50
2022-11-29T02:56:38.023Z,4.50
2022-11-29T02:59:13.983Z,4.50
2022-11-29T03:01:51.146Z,4.50
2022-11-29T03:04:28.517Z,4.30
2022-11-29T03:07:07.027Z,4.30
2022-11-29T03:09:40.668Z,4.30
2022-11-29T03:12:18.569Z,4.40
2022-11-29T03:14:58.161Z,4.30
2022-11-29T03:17:41.245Z,4.40
2022-11-29T03:20:23.272Z,4.40
2022-11-29T03:23:10.842Z,4.40
2022-11-29T03:25:43.161Z,4.50
2022-11-29T03:28:17.689Z,4.50
2022-11-29T03:30:52.055Z,4.40
2022-11-29T03:33:25.935Z,4.50
2022-11-29T03:36:00.693Z,4.50
2022-11-29T03:38:40.350Z,4.30
2022-11-29T03:41:17.484Z,4.50
2022-11-29T03:43:51.173Z,4.60
2022-11-29T03:46:26.783Z,4.50
2022-11-29T03:49:00.439Z,4.40
2022-11-29T03:51:40.141Z,4.30
2022-11-29T03:54:14.238Z,4.30
2022-11-29T03:56:43.378Z,4.40
2022-11-29T03:59:23.042Z,4.40
2022-11-29T04:02:33.897Z,4.40
2022-11-29T04:05:30.437Z,4.30
2022-11-29T04:08:37.183Z,4.60
2022-11-29T04:11:55.202Z,4.50
2022-11-29T04:14:54.713Z,4.40
2022-11-29T04:18:00.167Z,4.50
2022-11-29T04:21:06.138Z,4.50
2022-11-29T04:23:58.442Z,4.40
2022-11-29T04:27:08.294Z,4.50
2022-11-29T04:30:13.205Z,4.60
2022-11-29T04:33:23.372Z,4.60
2022-11-29T04:36:26.729Z,4.60
2022-11-29T04:39:36.497Z,4.60
2022-11-29T04:42:33.480Z,4.60
2022-11-29T04:45:37.944Z,4.70
2022-11-29T04:48:21.711Z,4.60
2022-11-29T04:51:02.247Z,4.50
2022-11-29T04:53:37.787Z,4.40
2022-11-29T04:56:20.424Z,4.60
2022-11-29T04:58:57.022Z,4.50
2022-11-29T05:01:33.040Z,4.50
2022-11-29T05:04:08.551Z,4.50
2022-11-29T05:06:44.653Z,4.60
2022-11-29T05:09:24.872Z,4.50
2022-11-29T05:12:04.512Z,4.30
2022-11-29T05:14:45.936Z,4.50
2022-11-29T05:17:30.926Z,4.60
2022-11-29T05:20:22.613Z,4.60
2022-11-29T05:23:03.836Z,4.70
2022-11-29T05:25:39.610Z,4.60
2022-11-29T05:28:14.850Z,4.70
2022-11-29T05:31:07.871Z,4.70
2022-11-29T05:34:12.813Z,4.50
2022-11-29T05:36:45.092Z,4.60
2022-11-29T05:39:30.509Z,4.80
2022-11-29T05:42:38.966Z,4.70
2022-11-29T05:45:15.692Z,4.90
2022-11-29T05:47:49.967Z,4.50
2022-11-29T05:50:25.694Z,4.60
2022-11-29T05:53:03.164Z,4.50
2022-11-29T05:55:42.313Z,4.70
2022-11-29T05:58:25.658Z,4.80
2022-11-29T06:01:04.688Z,4.80
2022-11-29T06:03:38.236Z,4.50
2022-11-29T06:06:15.318Z,4.50
2022-11-29T06:08:48.890Z,4.40
2022-11-29T06:11:23.057Z,4.50
2022-11-29T06:14:03.704Z,4.40
2022-11-29T06:16:57.474Z,4.30
2022-11-29T06:19:46.921Z,4.40
2022-11-29T06:22:45.201Z,4.40
2022-11-29T06:25:28.947Z,4.40
2022-11-29T06:28:14.818Z,4.40
2022-11-29T06:30:55.562Z,4.40
2022-11-29T06:33:28.571Z,4.30
2022-11-29T06:36:13.995Z,4.40
2022-11-29T06:38:44.085Z,4.20
2022-11-29T06:41:19.091Z,4.30
2022-11-29T06:43:48.073Z,4.40
2022-11-29T06:46:44.903Z,4.40
2022-11-29T06:49:17.164Z,4.40
2022-11-29T06:51:53.214Z,4.30
2022-11-29T06:54:33.640Z,4.30
2022-11-29T06:57:10.774Z,4.30
2022-11-29T06:59:52.693Z,4.40
2022-11-29T07:02:37.945Z,4.30
2022-11-29T07:05:16.551Z,4.50
2022-11-29T07:07:46.623Z,4.60
2022-11-29T07:10:19.379Z,4.60
2022-11-29T07:12:50.055Z,4.50
2022-11-29T07:15:20.348Z,4.40
2022-11-29T07:18:04.079Z,4.40
2022-11-29T07:20:39.695Z,4.30
2022-11-29T07:23:14.352Z,4.60
2022-11-29T07:25:54.485Z,4.40
2022-11-29T07:28:34.422Z,4.30
2022-11-29T07:31:10.864Z,4.40
2022-11-29T07:33:48.015Z,4.40
2022-11-29T07:36:24.937Z,4.30
2022-11-29T07:39:04.953Z,4.40
2022-11-29T07:41:42.171Z,4.30
2022-11-29T07:44:19.966Z,4.30
2022-11-29T07:46:47.980Z,4.40
2022-11-29T07:49:16.246Z,4.30
2022-11-29T07:51:44.570Z,4.30
2022-11-29T07:54:16.470Z,4.30
2022-11-29T07:56:45.881Z,4.30
2022-11-29T07:59:14.655Z,4.40
2022-11-29T08:01:42.906Z,4.50
2022-11-29T08:04:11.278Z,4.50
2022-11-29T08:06:39.449Z,4.40
2022-11-29T08:09:08.074Z,4.20
2022-11-29T08:11:36.140Z,4.30
2022-11-29T08:14:06.605Z,4.40
2022-11-29T08:16:34.743Z,4.40
2022-11-29T08:19:02.817Z,4.50
2022-11-29T08:21:30.796Z,4.40
2022-11-29T08:23:58.865Z,4.70
2022-11-29T08:26:31.216Z,4.80
2022-11-29T08:29:00.050Z,4.70
2022-11-29T08:31:29.486Z,4.60
2022-11-29T08:33:57.785Z,4.60
2022-11-29T08:36:25.854Z,4.60
2022-11-29T08:39:01.243Z,4.70
2022-11-29T08:41:31.875Z,4.50
2022-11-29T08:43:59.877Z,4.50
2022-11-29T08:46:50.042Z,4.50
2022-11-29T08:49:18.182Z,4.60
2022-11-29T08:51:46.780Z,4.50
2022-11-29T08:54:13.815Z,4.50
2022-11-29T08:59:29.978Z,4.60
2022-11-29T09:01:59.382Z,4.70
2022-11-29T09:04:27.390Z,5.00
2022-11-29T09:06:55.424Z,5.30
2022-11-29T09:09:23.428Z,4.80
2022-11-29T09:11:51.459Z,4.80
2022-11-29T09:14:19.995Z,5.10
2022-11-29T09:16:48.086Z,5.20
2022-11-29T09:19:17.747Z,5.20
2022-11-29T09:21:45.786Z,5.10
2022-11-29T09:24:14.007Z,5.00
2022-11-29T09:26:42.399Z,5.20
2022-11-29T09:29:12.084Z,5.30
2022-11-29T09:31:40.154Z,5.40
2022-11-29T09:34:08.287Z,5.30
2022-11-29T09:36:37.685Z,5.20
2022-11-29T09:39:05.711Z,5.30
2022-11-29T09:41:48.946Z,5.20
2022-11-29T09:44:23.037Z,5.00
2022-11-29T09:47:00.427Z,4.80
2022-11-29T09:49:47.140Z,4.80
2022-11-29T09:52:23.234Z,4.70
2022-11-29T09:55:01.692Z,5.00
2022-11-29T09:57:31.217Z,5.00
2022-11-29T10:00:02.963Z,4.80
2022-11-29T10:02:37.177Z,4.90
2022-11-29T10:05:13.649Z,4.90
2022-11-29T10:07:49.747Z,4.80
2022-11-29T10:10:23.868Z,5.00
2022-11-29T10:12:56.105Z,5.00
2022-11-29T10:15:27.741Z,4.90
2022-11-29T10:17:59.717Z,4.90
2022-11-29T10:20:33.381Z,5.00
2022-11-29T10:23:16.882Z,5.00
2022-11-29T10:25:48.203Z,5.10
2022-11-29T10:28:18.528Z,5.30
2022-11-29T10:30:46.708Z,5.20
2022-11-29T10:33:19.320Z,5.10
2022-11-29T10:35:48.735Z,5.20
2022-11-29T10:38:33.497Z,5.10
2022-11-29T10:41:08.438Z,5.10
2022-11-29T10:43:37.805Z,5.10
2022-11-29T10:46:07.532Z,5.10
2022-11-29T10:48:35.870Z,5.10
2022-11-29T10:51:04.353Z,5.20
2022-11-29T10:53:38.530Z,5.30
2022-11-29T10:56:09.922Z,5.30
2022-11-29T10:58:53.647Z,5.20
2022-11-29T11:01:22.321Z,5.10
2022-11-29T11:03:53.451Z,5.00
2022-11-29T11:06:23.501Z,5.00
2022-11-29T11:08:54.613Z,5.30
2022-11-29T11:11:29.496Z,5.50
2022-11-29T11:14:02.971Z,5.20
2022-11-29T11:16:36.999Z,5.50
2022-11-29T11:19:38.075Z,5.80
2022-11-29T11:22:06.374Z,5.70
2022-11-29T11:24:41.521Z,5.30
2022-11-29T11:27:09.603Z,5.30
2022-11-29T11:29:43.192Z,5.40
2022-11-29T11:32:18.086Z,5.50
2022-11-29T11:34:53.550Z,5.50
2022-11-29T11:37:25.872Z,5.50
2022-11-29T11:39:58.233Z,5.50
2022-11-29T11:42:40.366Z,5.30
2022-11-29T11:45:26.677Z,5.30
2022-11-29T11:47:57.629Z,5.60
2022-11-29T11:50:31.512Z,5.50
2022-11-29T11:53:02.132Z,5.50
2022-11-29T11:55:36.846Z,5.70
2022-11-29T11:58:16.030Z,5.60
2022-11-29T12:01:03.394Z,5.40
2022-11-29T12:03:41.984Z,5.50
2022-11-29T12:06:29.701Z,5.90
2022-11-29T12:09:03.580Z,5.80
2022-11-29T12:11:43.116Z,5.60
2022-11-29T12:14:22.989Z,5.50
2022-11-29T12:16:55.174Z,5.50
2022-11-29T12:19:30.140Z,5.50
2022-11-29T12:22:03.878Z,5.60
2022-11-29T12:24:35.390Z,5.60
2022-11-29T12:27:07.144Z,5.90
2022-11-29T12:29:36.685Z,5.80
2022-11-29T12:32:20.067Z,5.90
2022-11-29T12:35:01.636Z,6.10
2022-11-29T12:37:39.401Z,5.80
2022-11-29T12:40:13.785Z,6.00
2022-11-29T12:42:54.133Z,6.30
2022-11-29T12:45:46.498Z,6.00
2022-11-29T12:48:26.075Z,5.50
2022-11-29T12:51:03.578Z,5.30
2022-11-29T12:53:48.126Z,5.60
2022-11-29T12:56:21.686Z,6.00
2022-11-29T12:59:15.055Z,6.30
2022-11-29T13:01:59.033Z,6.20
2022-11-29T13:04:36.291Z,6.30
2022-11-29T13:07:12.431Z,6.30
2022-11-29T13:10:25.190Z,6.10
2022-11-29T13:12:56.029Z,6.30
2022-11-29T13:15:30.835Z,6.40
2022-11-29T13:18:05.871Z,6.20
2022-11-29T13:20:39.595Z,5.80
2022-11-29T13:23:16.312Z,6.10
2022-11-29T13:25:47.189Z,6.30
2022-11-29T13:28:22.922Z,6.30
2022-11-29T13:30:53.590Z,6.50
2022-11-29T13:33:28.108Z,6.30
2022-11-29T13:36:02.594Z,6.30
2022-11-29T13:38:36.746Z,6.30
2022-11-29T13:41:16.660Z,6.30
2022-11-29T13:43:49.757Z,6.20
2022-11-29T13:46:27.251Z,6.10
2022-11-29T13:48:56.320Z,6.20
2022-11-29T13:51:31.035Z,6.20
2022-11-29T13:54:02.183Z,6.30
2022-11-29T13:56:36.353Z,6.30
2022-11-29T13:59:09.446Z,6.30
2022-11-29T14:01:54.127Z,6.30
2022-11-29T14:04:32.119Z,6.00
2022-11-29T14:07:12.555Z,6.00
2022-11-29T14:09:59.366Z,5.90
2022-11-29T14:12:39.321Z,5.90
2022-11-29T14:15:22.159Z,6.00
2022-11-29T14:17:54.974Z,5.80
2022-11-29T14:20:57.028Z,5.90
2022-11-29T14:23:40.503Z,5.80
2022-11-29T14:26:28.560Z,5.70
2022-11-29T14:28:57.685Z,5.70
2022-11-29T14:31:48.517Z,5.50
2022-11-29T14:34:29.061Z,5.70
2022-11-29T14:37:05.927Z,5.50
2022-11-29T14:39:43.973Z,5.50
2022-11-29T14:42:17.111Z,5.80
2022-11-29T14:44:48.113Z,5.40
2022-11-29T14:47:29.810Z,5.40
2022-11-29T14:50:01.372Z,5.60
2022-11-29T14:52:32.721Z,5.50
2022-11-29T14:55:08.410Z,5.50
2022-11-29T14:57:53.706Z,5.20
2022-11-29T15:00:23.413Z,5.20
2022-11-29T15:02:54.222Z,5.30
2022-11-29T15:05:31.957Z,5.20
2022-11-29T15:08:09.955Z,5.30
2022-11-29T15:10:42.344Z,5.30
2022-11-29T15:13:13.884Z,5.40
2022-11-29T15:16:09.455Z,5.50
2022-11-29T15:19:14.028Z,5.30
2022-11-29T15:21:55.411Z,5.20
2022-11-29T15:24:28.283Z,5.30
2022-11-29T15:26:58.504Z,5.30
2022-11-29T15:29:27.721Z,5.20
2022-11-29T15:31:58.377Z,5.10
2022-11-29T15:34:32.915Z,5.00
2022-11-29T15:37:02.648Z,5.20
2022-11-29T15:39:33.470Z,5.00
2022-11-29T15:42:03.387Z,5.20
2022-11-29T15:44:33.243Z,5.00
2022-11-29T15:47:21.605Z,5.00
2022-11-29T15:49:50.012Z,5.00
2022-11-29T15:52:25.201Z,4.90
2022-11-29T15:54:57.025Z,5.00
2022-11-29T15:57:29.360Z,5.00
2022-11-29T16:00:00.001Z,4.90
2022-11-29T16:02:31.068Z,5.00
2022-11-29T16:05:04.350Z,5.10
2022-11-29T16:07:34.371Z,5.20
2022-11-29T16:10:08.630Z,5.20
2022-11-29T16:12:36.634Z,5.00
2022-11-29T16:15:05.400Z,4.90
2022-11-29T16:17:35.135Z,4.90
2022-11-29T16:20:23.534Z,4.90
2022-11-29T16:23:11.338Z,5.00
2022-11-29T16:26:00.107Z,5.00
2022-11-29T16:28:32.197Z,5.10
2022-11-29T16:31:01.130Z,5.20
2022-11-29T16:33:29.272Z,5.20
2022-11-29T16:36:11.938Z,5.10
2022-11-29T16:38:46.689Z,5.00
2022-11-29T16:41:31.580Z,5.00
2022-11-29T16:44:03.210Z,4.90
2022-11-29T16:46:39.408Z,5.00
2022-11-29T16:49:34.543Z,5.00
2022-11-29T16:52:03.779Z,4.90
2022-11-29T16:54:34.589Z,4.90
2022-11-29T16:57:06.146Z,5.10
2022-11-29T16:59:35.658Z,5.10
2022-11-29T17:02:03.882Z,5.00
2022-11-29T17:04:31.963Z,5.10
2022-11-29T17:07:01.113Z,5.00
2022-11-29T17:09:32.569Z,4.90
2022-11-29T17:12:02.781Z,4.80
2022-11-29T17:14:31.579Z,5.00
2022-11-29T17:17:03.266Z,5.00
2022-11-29T17:19:32.244Z,5.10
2022-11-29T17:22:00.960Z,5.10
2022-11-29T17:24:28.982Z,4.90
2022-11-29T17:26:57.372Z,4.90
2022-11-29T17:29:26.717Z,4.80
2022-11-29T17:31:54.769Z,4.90
2022-11-29T17:34:22.967Z,4.90
2022-11-29T17:36:51.066Z,4.90
2022-11-29T17:39:20.256Z,5.00
2022-11-29T17:41:48.582Z,5.00
2022-11-29T17:44:16.895Z,5.00
2022-11-29T17:46:46.316Z,5.30
2022-11-29T17:49:14.317Z,5.40
2022-11-29T17:51:57.964Z,5.30
2022-11-29T17:54:26.074Z,5.40
2022-11-29T17:56:54.262Z,5.30
2022-11-29T17:59:22.246Z,5.40
2022-11-29T18:01:51.678Z,5.30
2022-11-29T18:04:19.706Z,5.50
2022-11-29T18:06:50.245Z,5.50
2022-11-29T18:09:19.621Z,5.50
2022-11-29T18:11:50.318Z,5.50
2022-11-29T18:14:21.255Z,5.40
2022-11-29T18:16:49.409Z,5.50
2022-11-29T18:19:22.003Z,5.50
2022-11-29T18:21:50.901Z,5.60
2022-11-29T18:24:19.492Z,5.80
2022-11-29T18:26:47.608Z,5.70
2022-11-29T18:29:16.068Z,5.50
2022-11-29T18:31:46.047Z,5.40
2022-11-29T18:34:15.238Z,5.30
2022-11-29T18:36:46.388Z,5.50
2022-11-29T18:39:16.363Z,5.40
2022-11-29T18:41:46.224Z,5.40
2022-11-29T18:44:16.404Z,5.30
2022-11-29T18:46:45.785Z,5.40
2022-11-29T18:49:15.383Z,5.40
2022-11-29T18:51:46.332Z,5.50
2022-11-29T18:54:15.217Z,5.30
2022-11-29T18:56:43.743Z,5.30
2022-11-29T18:59:14.717Z,5.10
2022-11-29T19:01:43.668Z,5.20
2022-11-29T19:04:14.103Z,5.00
2022-11-29T19:06:43.009Z,5.20
2022-11-29T19:09:15.261Z,5.30
2022-11-29T19:11:43.863Z,5.30
2022-11-29T19:14:14.156Z,5.50
2022-11-29T19:16:44.023Z,5.40
2022-11-29T19:19:12.843Z,5.50
2022-11-29T19:21:41.417Z,5.60
2022-11-29T19:24:15.135Z,5.70
2022-11-29T19:26:44.845Z,5.70
2022-11-29T19:29:13.957Z,5.50
2022-11-29T19:31:42.564Z,5.50
2022-11-29T19:34:11.186Z,5.50
2022-11-29T19:36:43.065Z,5.40
2022-11-29T19:39:14.080Z,5.20
2022-11-29T19:41:43.749Z,5.40
2022-11-29T19:44:12.379Z,5.40
2022-11-29T19:46:42.228Z,5.40
2022-11-29T19:49:11.103Z,5.20
2022-11-29T19:51:39.671Z,5.20
2022-11-29T19:54:10.299Z,5.30
2022-11-29T19:56:39.816Z,5.30
2022-11-29T19:59:08.859Z,5.30
2022-11-29T20:01:42.715Z,5.30
2022-11-29T20:04:13.182Z,5.30
2022-11-29T20:06:41.811Z,5.50
2022-11-29T20:09:10.127Z,5.50
2022-11-29T20:11:39.933Z,5.30
2022-11-29T20:14:08.957Z,5.30
2022-11-29T20:16:38.990Z,5.30
2022-11-29T20:19:11.273Z,5.40
2022-11-29T20:21:43.546Z,5.40
2022-11-29T20:24:14.414Z,5.30
2022-11-29T20:26:47.130Z,5.30
2022-11-29T20:29:15.627Z,5.40
2022-11-29T20:31:49.924Z,5.50
2022-11-29T20:34:19.420Z,5.60
2022-11-29T20:36:59.227Z,5.60
2022-11-29T20:39:39.029Z,5.50
2022-11-29T20:42:38.322Z,5.50
2022-11-29T20:45:08.907Z,5.70
2022-11-29T20:47:47.580Z,5.60
2022-11-29T20:50:22.891Z,5.50
2022-11-29T20:52:59.563Z,5.30
2022-11-29T20:55:27.638Z,5.10
2022-11-29T20:57:59.274Z,5.10
2022-11-29T21:00:27.503Z,5.20
2022-11-29T21:02:55.586Z,5.20
2022-11-29T21:05:23.722Z,5.10
2022-11-29T21:07:51.852Z,5.10
2022-11-29T21:10:20.130Z,5.30
2022-11-29T21:12:48.743Z,5.30
2022-11-29T21:15:19.458Z,5.10
2022-11-29T21:17:48.018Z,5.10
2022-11-29T21:20:19.386Z,5.10
2022-11-29T21:22:55.047Z,5.10
2022-11-29T21:25:30.505Z,5.00
2022-11-29T21:27:59.079Z,5.10
2022-11-29T21:30:29.313Z,5.20
2022-11-29T21:32:57.939Z,5.30
2022-11-29T21:35:26.261Z,5.40
2022-11-29T21:37:59.107Z,5.20
2022-11-29T21:40:27.890Z,5.10
2022-11-29T21:42:55.904Z,5.30
2022-11-29T21:45:23.977Z,5.50
2022-11-29T21:47:53.345Z,5.50
2022-11-29T21:50:21.408Z,5.60
2022-11-29T21:52:52.732Z,5.60
2022-11-29T21:55:20.768Z,5.80
2022-11-29T21:57:48.787Z,5.80
2022-11-29T22:00:17.656Z,5.70
2022-11-29T22:02:45.730Z,5.60
2022-11-29T22:05:15.289Z,5.60
2022-11-29T22:07:44.244Z,5.50
2022-11-29T22:10:13.616Z,5.60
2022-11-29T22:12:51.251Z,5.40
2022-11-29T22:15:24.540Z,5.30
2022-11-29T22:17:53.354Z,5.40
2022-11-29T22:20:22.789Z,5.60
2022-11-29T22:22:54.487Z,5.50
2022-11-29T22:25:25.161Z,5.80
2022-11-29T22:27:53.146Z,5.50
2022-11-29T22:30:21.291Z,5.60
2022-11-29T22:32:49.708Z,5.60
2022-11-29T22:35:17.688Z,5.60
2022-11-29T22:37:47.048Z,5.60
2022-11-29T22:40:16.166Z,5.50
2022-11-29T22:42:44.199Z,5.50
2022-11-29T22:45:12.635Z,5.60
2022-11-29T22:47:40.664Z,5.30
2022-11-29T22:50:09.715Z,5.30
2022-11-29T22:52:37.879Z,5.30
2022-11-29T22:55:08.428Z,5.10
2022-11-29T22:57:36.730Z,5.30
2022-11-29T23:00:06.768Z,5.40
2022-11-29T23:02:34.857Z,5.20
2022-11-29T23:05:02.928Z,5.10
2022-11-29T23:07:30.977Z,5.10
2022-11-29T23:09:59.045Z,5.20
2022-11-29T23:12:28.386Z,5.30
2022-11-29T23:14:56.981Z,5.40
2022-11-29T23:17:25.961Z,5.30
2022-11-29T23:19:53.943Z,5.40
2022-11-29T23:22:21.952Z,5.50
2022-11-29T23:24:50.843Z,5.40
2022-11-29T23:27:18.913Z,5.40
2022-11-29T23:29:48.282Z,5.60
2022-11-29T23:32:16.285Z,5.50
2022-11-29T23:34:44.593Z,5.60
2022-11-29T23:37:13.208Z,5.40
2022-11-29T23:39:41.226Z,5.30
2022-11-29T23:42:09.256Z,5.20
2022-11-29T23:44:37.249Z,5.10
2022-11-29T23:47:06.611Z,5.10
2022-11-29T23:49:35.954Z,5.10
2022-11-29T23:52:04.027Z,5.20
2022-11-29T23:54:32.032Z,5.20
2022-11-29T23:57:00.076Z,5.20
2022-11-29T23:59:28.406Z,5.20
